This is the latest recevied weather packets stored in our database for station/object N4AN. If no packets are shown the sender has not sent any weather packets the latest 10 day(s).
| Time | Temp. | Humidity | Pressure | Rain* | Wind** | Luminosity | Snow |
|---|---|---|---|---|---|---|---|
| 1787533744 | 31.67° C | 64% | 1011.2 hPa | 0 mm | - | - | - |
| 1787533441 | 31.67° C | 65% | 1011.2 hPa | 0 mm | - | - | - |
| 1787533141 | 31.67° C | 65% | 1011.2 hPa | 0 mm | - | - | - |
| 1787532840 | 31.11° C | 67% | 1011.1 hPa | 0 mm | - | - | - |
| 1787532540 | 31.11° C | 67% | 1011.1 hPa | 0 mm | - | - | - |
| 1787532240 | 29.44° C | 71% | 1011.1 hPa | 0 mm | - | - | - |
| 1787531939 | 30° C | 70% | 1011.1 hPa | 0 mm | - | - | - |
| 1787531639 | 30° C | 71% | 1011.1 hPa | 0 mm | - | - | - |
| 1787531339 | 29.44° C | 71% | 1011 hPa | 0 mm | - | - | - |
| 1787531039 | 29.44° C | 71% | 1010.9 hPa | 0 mm | - | - | - |
| 1787530738 | 30° C | 71% | 1010.7 hPa | 0 mm | - | - | - |
| 1787530138 | 29.44° C | 71% | 1010.6 hPa | 0 mm | - | - | - |
| 1787529537 | 30° C | 70% | 1010.4 hPa | 0 mm | - | - | - |
| 1787529237 | 30.56° C | 68% | 1010.4 hPa | 0 mm | - | - | - |
| 1787528937 | 31.11° C | 68% | 1010.4 hPa | 0 mm | - | - | - |
| 1787528634 | 30.56° C | 69% | 1010.4 hPa | 0 mm | - | - | - |
| 1787528334 | 30° C | 71% | 1010.4 hPa | 0 mm | - | - | - |
| 1787528034 | 29.44° C | 72% | 1010.4 hPa | 0 mm | - | - | - |
| 1787527734 | 29.44° C | 72% | 1010.6 hPa | 0 mm | - | - | - |
| 1787527432 | 28.33° C | 75% | 1010.7 hPa | 0 mm | - | - | - |
| 1787527255 | 28.33° C | 76% | 1010.7 hPa | 0 mm | - | - | - |
| 1787527132 | 28.33° C | 76% | 1010.7 hPa | 0 mm | - | - | - |
| 1787526831 | 27.78° C | 76% | 1010.7 hPa | 0 mm | - | - | - |
| 1787526531 | 28.33° C | 75% | 1010.6 hPa | 0 mm | - | - | - |
| 1787526231 | 28.89° C | 74% | 1010.6 hPa | 0 mm | - | - | - |
* Rain latest hour (hover to see other rain measurements)
** Current wind speed in m/s (hover to see current wind gust speed)